Time;durP1;ratioP1;P1;durP2;ratioP2;P2;SDS_P1;SDS_P2;PMS_P1;PMS_P2;Temp;Humidity;BMP_temperature;BMP_pressure;BME280_temperature;BME280_humidity;BME280_pressure;Samples;Min_cycle;Max_cycle;Signal;HPM_P1;HPM_P2
2022/04/09 00:02:24;;;;;;;3.92;1.13;;;;;;;;;;6229148;23;20757;-87
2022/04/09 00:04:52;;;;;;;3.92;1.17;;;;;;;;;;6255393;22;20020;-85
2022/04/09 00:07:20;;;;;;;6.60;1.85;;;;;;;;;;6255282;23;20034;-86
2022/04/09 00:09:48;;;;;;;10.85;2.17;;;;;;;;;;6254756;23;20012;-86
2022/04/09 00:12:16;;;;;;;8.38;1.80;;;;;;;;;;6254155;23;20087;-85
2022/04/09 00:14:44;;;;;;;6.53;1.75;;;;;;;;;;6253744;23;20031;-88
2022/04/09 00:17:12;;;;;;;7.65;1.75;;;;;;;;;;6218158;23;20020;-87
2022/04/09 00:19:40;;;;;;;4.53;1.60;;;;;;;;;;6246079;23;20398;-88
2022/04/09 00:22:10;;;;;;;9.13;1.95;;;;;;;;;;6254384;23;20016;-88
2022/04/09 00:24:38;;;;;;;6.05;1.27;;;;;;;;;;6253973;23;20042;-87
2022/04/09 00:27:06;;;;;;;5.50;1.20;;;;;;;;;;6253246;23;20020;-87
2022/04/09 00:29:34;;;;;;;5.40;1.20;;;;;;;;;;6253391;23;20020;-87
2022/04/09 00:32:03;;;;;;;5.05;1.05;;;;;;;;;;6254307;23;20394;-87
2022/04/09 00:34:30;;;;;;;4.82;1.25;;;;;;;;;;6194326;23;20028;-88
2022/04/09 00:36:58;;;;;;;3.88;1.42;;;;;;;;;;6254629;23;20020;-87
2022/04/09 00:39:26;;;;;;;5.20;1.63;;;;;;;;;;6253763;23;20436;-88
2022/04/09 00:41:54;;;;;;;5.60;1.30;;;;;;;;;;6254200;23;20034;-87
2022/04/09 00:44:23;;;;;;;5.68;1.40;;;;;;;;;;6252736;23;20047;-88
2022/04/09 00:46:50;;;;;;;5.57;1.35;;;;;;;;;;6253079;23;20020;-88
2022/04/09 00:49:18;;;;;;;5.80;1.17;;;;;;;;;;6253764;23;20038;-88
2022/04/09 00:51:49;;;;;;;6.32;1.23;;;;;;;;;;6255570;23;20024;-88
2022/04/09 00:54:19;;;;;;;1.33;0.88;;;;;;;;;;6254539;23;20024;-89
2022/04/09 00:56:51;;;;;;;8.25;1.30;;;;;;;;;;6254007;23;20016;-89
2022/04/09 00:59:23;;;;;;;3.90;1.02;;;;;;;;;;6253582;23;20099;-89
2022/04/09 01:01:53;;;;;;;2.70;1.10;;;;;;;;;;6253983;23;20020;-90
2022/04/09 01:04:20;;;;;;;4.80;1.33;;;;;;;;;;6254152;23;20054;-88
2022/04/09 01:06:49;;;;;;;4.10;1.02;;;;;;;;;;6253679;23;20754;-88
2022/04/09 01:09:16;;;;;;;3.95;1.15;;;;;;;;;;6255227;22;20024;-89
2022/04/09 01:11:44;;;;;;;8.25;1.35;;;;;;;;;;6253870;23;20027;-89
2022/04/09 01:14:13;;;;;;;3.97;1.13;;;;;;;;;;6228928;23;20062;-88
2022/04/09 01:16:40;;;;;;;3.97;1.10;;;;;;;;;;6229239;23;20102;-89
2022/04/09 01:19:08;;;;;;;3.13;1.10;;;;;;;;;;6255053;22;20012;-89
2022/04/09 01:21:39;;;;;;;3.92;1.35;;;;;;;;;;6253730;23;20020;-89
2022/04/09 01:24:08;;;;;;;3.10;1.20;;;;;;;;;;6254041;23;20044;-88
2022/04/09 01:26:45;;;;;;;7.25;1.00;;;;;;;;;;6253528;23;20020;-89
2022/04/09 01:29:26;;;;;;;4.05;1.05;;;;;;;;;;6254148;23;20016;-88
2022/04/09 01:31:54;;;;;;;7.97;1.15;;;;;;;;;;6253582;23;20116;-88
2022/04/09 01:34:22;;;;;;;3.88;1.15;;;;;;;;;;6253763;23;20700;-89
2022/04/09 01:36:50;;;;;;;4.88;1.27;;;;;;;;;;6253509;23;20027;-89
2022/04/09 01:39:18;;;;;;;3.30;1.30;;;;;;;;;;6217999;23;20031;-89
2022/04/09 01:41:46;;;;;;;4.35;1.25;;;;;;;;;;6253622;23;20860;-89
2022/04/09 01:44:14;;;;;;;4.07;1.20;;;;;;;;;;6193339;23;20032;-89
2022/04/09 01:46:44;;;;;;;6.72;1.15;;;;;;;;;;6253820;23;20024;-88
2022/04/09 01:49:14;;;;;;;6.22;1.38;;;;;;;;;;6253353;23;20530;-89
2022/04/09 01:51:42;;;;;;;5.95;1.40;;;;;;;;;;6253583;23;20043;-89
2022/04/09 01:54:11;;;;;;;6.53;1.50;;;;;;;;;;6252878;23;20122;-89
2022/04/09 01:56:39;;;;;;;6.60;1.02;;;;;;;;;;6254420;22;20062;-89
2022/04/09 01:59:06;;;;;;;5.70;1.00;;;;;;;;;;6228269;23;20098;-89
2022/04/09 02:01:34;;;;;;;2.50;1.00;;;;;;;;;;6253194;23;20024;-89
2022/04/09 02:04:03;;;;;;;5.88;1.27;;;;;;;;;;6253285;23;20020;-89
2022/04/09 02:06:32;;;;;;;2.42;1.23;;;;;;;;;;6254534;23;20632;-89
2022/04/09 02:09:00;;;;;;;2.22;1.00;;;;;;;;;;6228558;23;20020;-89
2022/04/09 02:11:30;;;;;;;4.72;1.10;;;;;;;;;;6253366;23;20016;-88
2022/04/09 02:13:58;;;;;;;6.45;1.60;;;;;;;;;;6253303;23;20509;-89
2022/04/09 02:16:27;;;;;;;2.80;1.50;;;;;;;;;;6253372;23;20099;-89
2022/04/09 02:18:54;;;;;;;4.22;1.10;;;;;;;;;;6217733;23;20032;-90
2022/04/09 02:21:22;;;;;;;6.88;1.13;;;;;;;;;;6254733;23;20016;-89
2022/04/09 02:23:50;;;;;;;2.13;0.90;;;;;;;;;;6228343;23;20043;-89
2022/04/09 02:26:23;;;;;;;3.47;1.10;;;;;;;;;;6253227;23;20020;-88
2022/04/09 02:28:52;;;;;;;2.55;0.98;;;;;;;;;;6252905;23;20019;-89
2022/04/09 02:31:22;;;;;;;3.50;1.33;;;;;;;;;;6253274;23;20093;-89
2022/04/09 02:33:50;;;;;;;8.30;1.10;;;;;;;;;;6252861;23;20047;-89
2022/04/09 02:36:19;;;;;;;5.95;1.20;;;;;;;;;;6253249;23;20016;-89
2022/04/09 02:38:46;;;;;;;7.13;1.40;;;;;;;;;;6254432;22;20396;-89
2022/04/09 02:41:14;;;;;;;2.47;1.17;;;;;;;;;;6254471;22;20008;-89
2022/04/09 02:43:45;;;;;;;6.22;1.63;;;;;;;;;;6252708;23;20048;-89
2022/04/09 02:46:12;;;;;;;4.15;1.40;;;;;;;;;;6252904;23;20047;-88
2022/04/09 02:48:44;;;;;;;6.13;1.10;;;;;;;;;;6249405;23;20174;-89
2022/04/09 02:51:14;;;;;;;6.78;1.50;;;;;;;;;;6253202;23;20223;-89
2022/04/09 02:53:42;;;;;;;4.95;1.13;;;;;;;;;;6252791;23;20450;-88
2022/04/09 02:56:11;;;;;;;4.85;1.23;;;;;;;;;;6242638;23;20061;-88
2022/04/09 02:58:40;;;;;;;5.05;1.20;;;;;;;;;;6252976;23;20428;-88
2022/04/09 03:01:10;;;;;;;3.65;1.40;;;;;;;;;;6252845;23;20012;-89
2022/04/09 03:03:36;;;;;;;6.18;1.17;;;;;;;;;;6253031;23;20020;-88
2022/04/09 03:06:04;;;;;;;3.38;1.30;;;;;;;;;;6254298;22;20016;-89
2022/04/09 03:08:32;;;;;;;6.15;1.40;;;;;;;;;;6242351;23;20024;-89
2022/04/09 03:11:00;;;;;;;3.53;1.08;;;;;;;;;;6252880;23;20008;-89
2022/04/09 03:13:28;;;;;;;6.28;1.45;;;;;;;;;;6242358;23;20511;-89
2022/04/09 03:15:57;;;;;;;6.35;1.55;;;;;;;;;;6254168;23;20024;-88
2022/04/09 03:18:24;;;;;;;6.20;1.50;;;;;;;;;;6252707;23;20103;-89
2022/04/09 03:20:52;;;;;;;2.85;1.40;;;;;;;;;;6252652;23;20016;-88
2022/04/09 03:23:22;;;;;;;6.35;1.50;;;;;;;;;;6252296;23;20072;-89
2022/04/09 03:25:54;;;;;;;2.50;1.05;;;;;;;;;;6228674;23;20487;-89
2022/04/09 03:28:26;;;;;;;3.88;1.38;;;;;;;;;;6252926;23;20047;-89
2022/04/09 03:30:54;;;;;;;7.22;1.70;;;;;;;;;;6227826;23;20115;-88
2022/04/09 03:33:23;;;;;;;3.22;1.10;;;;;;;;;;6252820;23;20443;-88
2022/04/09 03:35:58;;;;;;;6.50;1.42;;;;;;;;;;6252748;23;20044;-88
2022/04/09 03:38:28;;;;;;;2.53;1.20;;;;;;;;;;6254163;22;20083;-89
2022/04/09 03:40:58;;;;;;;9.23;1.70;;;;;;;;;;6252878;23;20083;-89
2022/04/09 03:43:44;;;;;;;3.72;1.40;;;;;;;;;;6231321;23;20016;-89
2022/04/09 03:46:12;;;;;;;4.70;1.17;;;;;;;;;;6252989;23;20016;-89
2022/04/09 03:48:42;;;;;;;7.32;1.63;;;;;;;;;;6226530;23;20087;-88
2022/04/09 03:51:08;;;;;;;4.25;1.30;;;;;;;;;;6251905;22;20662;-88
2022/04/09 03:53:36;;;;;;;2.53;1.30;;;;;;;;;;6251640;23;20020;-89
2022/04/09 03:56:05;;;;;;;5.40;1.65;;;;;;;;;;6250945;23;20050;-88
2022/04/09 03:58:37;;;;;;;6.85;1.80;;;;;;;;;;6252323;23;20388;-89
2022/04/09 04:01:06;;;;;;;3.05;1.35;;;;;;;;;;6252347;23;20016;-89
2022/04/09 04:03:34;;;;;;;4.57;1.58;;;;;;;;;;6252336;23;20024;-90
2022/04/09 04:06:02;;;;;;;5.75;1.90;;;;;;;;;;6252749;23;20035;-89
2022/04/09 04:08:32;;;;;;;6.53;1.38;;;;;;;;;;6252637;23;20024;-89
2022/04/09 04:11:02;;;;;;;5.22;1.52;;;;;;;;;;6252299;23;20016;-89
2022/04/09 04:13:35;;;;;;;4.10;1.35;;;;;;;;;;6205994;23;20518;-89
2022/04/09 04:16:05;;;;;;;4.82;1.65;;;;;;;;;;6228079;23;20087;-88
2022/04/09 04:18:38;;;;;;;4.07;1.60;;;;;;;;;;6194446;23;20020;-89
2022/04/09 04:21:07;;;;;;;4.40;1.50;;;;;;;;;;6227681;23;20026;-88
2022/04/09 04:23:36;;;;;;;6.43;1.42;;;;;;;;;;6252433;23;20047;-88
2022/04/09 04:26:12;;;;;;;6.93;1.27;;;;;;;;;;6253365;22;20019;-89
2022/04/09 04:28:40;;;;;;;3.92;1.60;;;;;;;;;;6254146;22;20700;-89
2022/04/09 04:31:08;;;;;;;5.00;1.40;;;;;;;;;;6252145;23;20019;-88
2022/04/09 04:33:38;;;;;;;9.50;1.90;;;;;;;;;;6228056;23;20020;-88
2022/04/09 04:36:06;;;;;;;3.90;1.40;;;;;;;;;;6254776;23;20043;-89
2022/04/09 04:38:39;;;;;;;4.95;1.60;;;;;;;;;;6253751;23;20027;-88
2022/04/09 04:41:07;;;;;;;4.75;1.45;;;;;;;;;;6253974;23;20095;-89
2022/04/09 04:43:34;;;;;;;8.48;2.13;;;;;;;;;;6228879;23;20020;-88
2022/04/09 04:46:05;;;;;;;3.85;1.48;;;;;;;;;;6254723;23;20074;-88
2022/04/09 04:48:34;;;;;;;2.63;1.38;;;;;;;;;;6219516;23;20024;-88
2022/04/09 04:51:04;;;;;;;5.25;1.58;;;;;;;;;;6253505;23;20451;-89
2022/04/09 04:53:34;;;;;;;14.73;2.10;;;;;;;;;;6253756;23;20020;-88
2022/04/09 04:56:02;;;;;;;6.55;1.60;;;;;;;;;;6253818;23;20363;-87
2022/04/09 04:58:42;;;;;;;4.38;1.25;;;;;;;;;;6254021;23;20020;-89
2022/04/09 05:01:10;;;;;;;10.45;2.15;;;;;;;;;;6254081;23;20012;-88
2022/04/09 05:03:42;;;;;;;4.72;1.73;;;;;;;;;;6254102;23;20103;-88
2022/04/09 05:06:16;;;;;;;9.45;1.65;;;;;;;;;;6255249;22;20020;-88
2022/04/09 05:08:44;;;;;;;5.60;1.48;;;;;;;;;;6253903;23;20016;-87
2022/04/09 05:11:16;;;;;;;3.60;1.50;;;;;;;;;;6254002;23;20707;-87
2022/04/09 05:13:44;;;;;;;8.85;1.95;;;;;;;;;;6253041;23;20407;-87
2022/04/09 05:16:12;;;;;;;14.38;2.65;;;;;;;;;;6253990;23;20019;-87
2022/04/09 05:18:48;;;;;;;7.00;1.95;;;;;;;;;;6250396;23;20020;-87
2022/04/09 05:21:18;;;;;;;9.88;2.15;;;;;;;;;;6229390;23;20062;-87
2022/04/09 05:23:46;;;;;;;7.78;2.03;;;;;;;;;;6253408;23;20024;-87
2022/04/09 05:26:14;;;;;;;7.47;1.85;;;;;;;;;;6253935;23;20024;-86
2022/04/09 05:28:53;;;;;;;6.15;2.13;;;;;;;;;;6253625;23;20347;-87
2022/04/09 05:31:27;;;;;;;6.72;1.80;;;;;;;;;;6253855;23;20040;-86
2022/04/09 05:33:57;;;;;;;9.10;2.25;;;;;;;;;;6254202;23;20024;-87
2022/04/09 05:36:26;;;;;;;13.05;1.80;;;;;;;;;;6240742;23;20027;-87
2022/04/09 05:38:56;;;;;;;9.95;2.03;;;;;;;;;;6253422;23;20031;-86
2022/04/09 05:41:24;;;;;;;6.32;2.22;;;;;;;;;;6253567;23;20016;-87
2022/04/09 05:43:54;;;;;;;5.53;2.10;;;;;;;;;;6253558;23;20024;-86
2022/04/09 05:46:24;;;;;;;6.45;2.20;;;;;;;;;;6218087;23;20082;-87
2022/04/09 05:48:52;;;;;;;8.10;2.72;;;;;;;;;;6253552;23;20024;-86
2022/04/09 05:51:20;;;;;;;5.88;1.73;;;;;;;;;;6253454;23;20667;-86
2022/04/09 05:53:52;;;;;;;4.35;2.20;;;;;;;;;;6253403;23;20131;-87
2022/04/09 05:56:23;;;;;;;9.75;2.28;;;;;;;;;;6254035;23;20074;-87
2022/04/09 05:58:50;;;;;;;10.57;2.40;;;;;;;;;;6253815;23;20023;-87
2022/04/09 06:01:39;;;;;;;10.43;2.50;;;;;;;;;;6232588;23;20016;-87
2022/04/09 06:04:09;;;;;;;6.75;2.17;;;;;;;;;;6253545;23;20486;-87
2022/04/09 06:06:37;;;;;;;9.48;2.33;;;;;;;;;;6253463;23;20023;-87
2022/04/09 06:09:08;;;;;;;7.50;2.13;;;;;;;;;;6253098;23;20020;-87
2022/04/09 06:11:48;;;;;;;11.40;2.00;;;;;;;;;;6252936;23;20355;-87
2022/04/09 06:14:24;;;;;;;4.88;1.50;;;;;;;;;;6252896;23;20020;-86
2022/04/09 06:16:54;;;;;;;11.18;2.03;;;;;;;;;;6253215;23;20383;-87
2022/04/09 06:19:22;;;;;;;8.07;1.88;;;;;;;;;;6252812;23;20455;-87
2022/04/09 06:21:50;;;;;;;12.27;3.45;;;;;;;;;;6254669;22;20043;-87
2022/04/09 06:24:20;;;;;;;6.97;1.88;;;;;;;;;;6253211;23;20020;-87
2022/04/09 06:26:49;;;;;;;9.88;2.00;;;;;;;;;;6253205;23;20635;-87
2022/04/09 06:29:16;;;;;;;6.05;2.35;;;;;;;;;;6253980;23;20107;-87
2022/04/09 06:31:47;;;;;;;5.30;2.00;;;;;;;;;;6255582;23;20028;-87
2022/04/09 06:34:17;;;;;;;5.07;1.90;;;;;;;;;;6256324;23;20455;-87
2022/04/09 06:36:46;;;;;;;10.57;2.30;;;;;;;;;;6270689;23;20051;-86
2022/04/09 06:39:16;;;;;;;12.55;2.22;;;;;;;;;;6278074;23;20039;-86
2022/04/09 06:41:44;;;;;;;8.65;2.20;;;;;;;;;;6254031;23;20020;-86
2022/04/09 06:44:16;;;;;;;5.00;1.98;;;;;;;;;;6269362;23;20028;-86
2022/04/09 06:46:52;;;;;;;8.35;2.42;;;;;;;;;;6242231;23;20011;-86
2022/04/09 06:49:40;;;;;;;6.78;2.20;;;;;;;;;;6256195;23;20012;-87
2022/04/09 06:52:10;;;;;;;9.07;2.08;;;;;;;;;;6252263;23;20012;-87
2022/04/09 06:55:00;;;;;;;16.60;2.60;;;;;;;;;;6263774;23;20019;-86
2022/04/09 06:57:32;;;;;;;9.57;2.10;;;;;;;;;;6252838;23;20027;-87
2022/04/09 07:00:01;;;;;;;11.50;2.35;;;;;;;;;;6253117;23;20717;-86
2022/04/09 07:02:33;;;;;;;9.68;2.00;;;;;;;;;;6252573;23;20039;-87
2022/04/09 07:05:00;;;;;;;9.52;2.25;;;;;;;;;;6252297;23;20066;-86
2022/04/09 07:07:29;;;;;;;10.13;2.03;;;;;;;;;;6253636;22;20047;-86
2022/04/09 07:10:09;;;;;;;9.13;2.17;;;;;;;;;;6253838;22;20028;-88
2022/04/09 07:12:38;;;;;;;7.25;1.95;;;;;;;;;;6242560;23;20066;-89
2022/04/09 07:15:06;;;;;;;12.10;2.08;;;;;;;;;;6254358;22;20344;-87
2022/04/09 07:17:32;;;;;;;6.35;1.98;;;;;;;;;;6242326;23;20024;-88
2022/04/09 07:20:03;;;;;;;11.77;2.83;;;;;;;;;;6252963;23;20023;-87
2022/04/09 07:22:33;;;;;;;4.68;1.80;;;;;;;;;;6253816;22;20016;-88
2022/04/09 07:25:05;;;;;;;7.90;2.25;;;;;;;;;;6254004;22;20020;-88
2022/04/09 07:27:37;;;;;;;4.75;2.10;;;;;;;;;;6253388;22;20066;-88
2022/04/09 07:30:10;;;;;;;10.25;2.17;;;;;;;;;;6242516;23;20039;-88
2022/04/09 07:32:39;;;;;;;5.90;1.95;;;;;;;;;;6254289;23;20079;-88
2022/04/09 07:35:08;;;;;;;8.70;2.38;;;;;;;;;;6252234;23;20050;-88
2022/04/09 07:37:53;;;;;;;6.68;1.92;;;;;;;;;;6252312;23;20482;-89
2022/04/09 07:40:24;;;;;;;9.65;2.10;;;;;;;;;;6254188;22;20469;-89
2022/04/09 07:42:57;;;;;;;3.72;1.85;;;;;;;;;;6218108;23;20016;-88
2022/04/09 07:45:28;;;;;;;8.32;1.70;;;;;;;;;;6254482;22;20027;-87
2022/04/09 07:47:59;;;;;;;5.45;1.80;;;;;;;;;;6252693;23;20027;-88
2022/04/09 07:50:28;;;;;;;5.82;1.67;;;;;;;;;;6254372;22;20028;-87
2022/04/09 07:52:57;;;;;;;7.38;1.70;;;;;;;;;;6253661;22;20095;-87
2022/04/09 07:55:24;;;;;;;7.93;1.50;;;;;;;;;;6253956;22;20031;-87
2022/04/09 07:57:54;;;;;;;5.30;1.45;;;;;;;;;;6253493;22;20020;-88
2022/04/09 08:00:24;;;;;;;3.35;1.50;;;;;;;;;;6252990;23;20477;-89
2022/04/09 08:02:50;;;;;;;5.25;2.08;;;;;;;;;;6252767;23;20466;-88
2022/04/09 08:05:18;;;;;;;6.80;1.90;;;;;;;;;;6252755;23;20044;-88
2022/04/09 08:07:47;;;;;;;7.18;1.92;;;;;;;;;;6252155;23;20020;-88
2022/04/09 08:10:14;;;;;;;6.80;1.58;;;;;;;;;;6254587;23;20016;-88
2022/04/09 08:12:42;;;;;;;7.35;1.50;;;;;;;;;;6254390;23;20416;-88
2022/04/09 08:15:10;;;;;;;6.40;1.55;;;;;;;;;;6255619;22;20074;-88
2022/04/09 08:17:39;;;;;;;6.40;1.60;;;;;;;;;;6244253;23;20046;-88
2022/04/09 08:20:08;;;;;;;7.90;1.85;;;;;;;;;;6255551;22;20864;-87
2022/04/09 08:22:34;;;;;;;5.47;1.80;;;;;;;;;;6255237;22;20016;-88
2022/04/09 08:25:11;;;;;;;10.43;1.83;;;;;;;;;;6256248;22;20652;-88
2022/04/09 08:27:38;;;;;;;5.88;1.58;;;;;;;;;;6244475;23;20354;-88
2022/04/09 08:30:07;;;;;;;6.90;1.73;;;;;;;;;;6219540;23;20027;-90
2022/04/09 08:32:34;;;;;;;8.32;1.77;;;;;;;;;;6229409;23;20016;-90
2022/04/09 08:35:03;;;;;;;4.07;1.40;;;;;;;;;;6254593;23;20020;-89
2022/04/09 08:37:30;;;;;;;8.02;1.92;;;;;;;;;;6253867;23;20086;-91
2022/04/09 08:39:58;;;;;;;8.63;1.55;;;;;;;;;;6254802;23;20020;-90
2022/04/09 08:42:28;;;;;;;5.93;1.40;;;;;;;;;;6255299;22;20024;-90
2022/04/09 08:44:59;;;;;;;3.42;1.35;;;;;;;;;;6256459;22;20079;-90
2022/04/09 08:47:28;;;;;;;4.28;1.23;;;;;;;;;;6219316;23;20028;-89
2022/04/09 08:49:57;;;;;;;4.30;1.52;;;;;;;;;;6256134;22;20020;-89
2022/04/09 08:52:25;;;;;;;11.93;1.40;;;;;;;;;;6229416;23;20016;-89
2022/04/09 08:54:52;;;;;;;4.22;2.58;;;;;;;;;;6254233;23;20054;-89
2022/04/09 08:57:20;;;;;;;10.05;1.40;;;;;;;;;;6254017;23;20019;-89
2022/04/09 08:59:48;;;;;;;7.15;1.25;;;;;;;;;;6218745;23;20107;-89
2022/04/09 09:02:16;;;;;;;2.80;1.55;;;;;;;;;;6253759;23;20027;-87
2022/04/09 09:04:44;;;;;;;6.75;1.20;;;;;;;;;;6254766;23;20356;-88
2022/04/09 09:07:18;;;;;;;4.63;1.20;;;;;;;;;;6254360;22;20020;-89
2022/04/09 09:09:44;;;;;;;5.90;1.95;;;;;;;;;;6255369;23;20023;-89
2022/04/09 09:12:26;;;;;;;3.70;1.20;;;;;;;;;;6253696;23;20402;-89
2022/04/09 09:14:55;;;;;;;3.95;1.00;;;;;;;;;;6255728;22;20804;-88
2022/04/09 09:17:30;;;;;;;6.03;1.63;;;;;;;;;;6252975;23;20024;-89
2022/04/09 09:19:59;;;;;;;7.18;1.25;;;;;;;;;;6253381;23;20052;-88
2022/04/09 09:22:37;;;;;;;3.83;1.17;;;;;;;;;;6227958;23;20474;-88
2022/04/09 09:25:10;;;;;;;7.05;1.40;;;;;;;;;;6253722;23;20456;-89
2022/04/09 09:27:40;;;;;;;7.60;1.10;;;;;;;;;;6242886;23;20099;-88
2022/04/09 09:30:13;;;;;;;7.75;1.25;;;;;;;;;;6254123;23;20034;-87
2022/04/09 09:32:41;;;;;;;3.72;1.10;;;;;;;;;;6255158;22;20438;-88
2022/04/09 09:35:12;;;;;;;6.40;1.40;;;;;;;;;;6255268;22;20039;-88
2022/04/09 09:37:41;;;;;;;5.85;1.02;;;;;;;;;;6243530;23;20039;-88
2022/04/09 09:40:09;;;;;;;4.95;0.85;;;;;;;;;;6253862;23;20027;-88
2022/04/09 09:42:36;;;;;;;3.65;1.42;;;;;;;;;;6253635;23;20024;-87
2022/04/09 09:45:05;;;;;;;7.95;1.42;;;;;;;;;;6253869;23;20016;-88
2022/04/09 09:47:32;;;;;;;6.43;1.25;;;;;;;;;;6228499;23;20027;-88
2022/04/09 09:50:00;;;;;;;4.75;1.05;;;;;;;;;;6255025;22;20378;-89
2022/04/09 09:52:30;;;;;;;6.60;1.17;;;;;;;;;;6254711;23;20070;-89
2022/04/09 09:55:13;;;;;;;5.15;0.95;;;;;;;;;;6253800;23;20047;-89
2022/04/09 09:57:42;;;;;;;3.45;1.40;;;;;;;;;;6253830;23;20016;-89
2022/04/09 10:00:11;;;;;;;8.65;1.73;;;;;;;;;;6217638;23;20024;-88
2022/04/09 10:02:39;;;;;;;9.57;1.35;;;;;;;;;;6253192;23;20047;-88
2022/04/09 10:05:07;;;;;;;8.02;1.23;;;;;;;;;;6253279;23;20054;-88
2022/04/09 10:07:35;;;;;;;5.63;1.40;;;;;;;;;;6254424;22;20016;-87
2022/04/09 10:10:04;;;;;;;4.13;1.17;;;;;;;;;;6242153;23;20666;-88
2022/04/09 10:12:39;;;;;;;2.63;0.85;;;;;;;;;;6253945;22;20107;-85
2022/04/09 10:15:07;;;;;;;2.72;0.80;;;;;;;;;;6253244;23;20020;-87
2022/04/09 10:17:35;;;;;;;4.32;1.15;;;;;;;;;;6254042;22;20510;-87
2022/04/09 10:20:04;;;;;;;4.18;0.98;;;;;;;;;;6242973;23;20135;-86
2022/04/09 10:22:37;;;;;;;1.52;0.77;;;;;;;;;;6242396;23;20358;-87
2022/04/09 10:25:07;;;;;;;11.07;1.83;;;;;;;;;;6252524;23;20090;-86
2022/04/09 10:27:52;;;;;;;4.05;1.13;;;;;;;;;;6251353;23;20030;-85
2022/04/09 10:30:24;;;;;;;6.35;1.20;;;;;;;;;;6226764;23;20070;-88
2022/04/09 10:32:54;;;;;;;6.80;1.30;;;;;;;;;;6251424;23;20012;-87
2022/04/09 10:35:38;;;;;;;7.07;1.70;;;;;;;;;;6253447;22;20016;-89
2022/04/09 10:38:06;;;;;;;3.85;1.10;;;;;;;;;;6250852;23;20438;-90
2022/04/09 10:40:36;;;;;;;3.70;1.05;;;;;;;;;;6252985;23;20095;-89
2022/04/09 10:43:06;;;;;;;3.55;0.90;;;;;;;;;;6251656;23;20016;-89
2022/04/09 10:46:06;;;;;;;3.35;0.85;;;;;;;;;;6251677;23;20440;-88
2022/04/09 10:48:36;;;;;;;3.47;0.75;;;;;;;;;;6241608;23;20016;-88
2022/04/09 10:51:08;;;;;;;3.67;0.95;;;;;;;;;;6251307;23;20414;-88
2022/04/09 10:53:38;;;;;;;2.83;1.17;;;;;;;;;;6254275;23;20373;-88
2022/04/09 10:56:26;;;;;;;4.28;0.65;;;;;;;;;;6273396;22;20007;-88
2022/04/09 10:59:06;;;;;;;4.70;2.20;;;;;;;;;;6234399;23;20036;-88
2022/04/09 11:01:50;;;;;;;3.55;1.00;;;;;;;;;;6253170;22;20443;-88
2022/04/09 11:04:27;;;;;;;4.13;0.90;;;;;;;;;;6252938;22;20027;-87
2022/04/09 11:07:06;;;;;;;5.80;0.90;;;;;;;;;;6252406;22;20452;-87
2022/04/09 11:09:59;;;;;;;8.60;1.17;;;;;;;;;;6250679;23;20020;-88
2022/04/09 11:12:40;;;;;;;1.85;0.75;;;;;;;;;;6251082;23;20026;-89
2022/04/09 11:15:12;;;;;;;1.23;0.60;;;;;;;;;;6252738;23;20347;-89
2022/04/09 11:17:43;;;;;;;8.75;0.95;;;;;;;;;;6252745;22;20016;-88
2022/04/09 11:20:22;;;;;;;5.05;1.15;;;;;;;;;;6252951;22;20047;-88
2022/04/09 11:22:52;;;;;;;5.80;1.10;;;;;;;;;;6252495;22;20023;-89
2022/04/09 11:25:21;;;;;;;3.83;0.85;;;;;;;;;;6251187;23;20020;-88
2022/04/09 11:27:51;;;;;;;5.30;1.33;;;;;;;;;;6250950;23;20427;-89
2022/04/09 11:30:18;;;;;;;1.98;0.98;;;;;;;;;;6241571;23;20308;-89
2022/04/09 11:32:46;;;;;;;5.80;1.10;;;;;;;;;;6251247;23;20035;-90
2022/04/09 11:35:16;;;;;;;5.60;1.35;;;;;;;;;;6252497;22;20020;-89
2022/04/09 11:37:48;;;;;;;5.78;1.10;;;;;;;;;;6252816;22;20031;-90
2022/04/09 11:40:20;;;;;;;6.70;1.40;;;;;;;;;;6252155;23;20042;-90
2022/04/09 11:42:50;;;;;;;7.07;1.00;;;;;;;;;;6250856;23;20081;-90
2022/04/09 11:45:33;;;;;;;6.03;0.90;;;;;;;;;;6252932;23;20020;-90
2022/04/09 11:48:03;;;;;;;4.18;0.70;;;;;;;;;;6251350;23;20031;-89
2022/04/09 11:50:33;;;;;;;6.20;1.10;;;;;;;;;;6251601;23;20070;-89
2022/04/09 11:53:11;;;;;;;4.05;0.85;;;;;;;;;;6251161;23;20398;-88
2022/04/09 11:55:41;;;;;;;6.78;1.10;;;;;;;;;;6250527;23;20385;-87
2022/04/09 11:58:15;;;;;;;5.75;0.88;;;;;;;;;;6252511;22;20095;-87
2022/04/09 12:00:46;;;;;;;4.57;1.10;;;;;;;;;;6252365;22;20020;-89
2022/04/09 12:03:14;;;;;;;5.55;1.10;;;;;;;;;;6252434;22;20012;-88
2022/04/09 12:05:46;;;;;;;7.32;1.45;;;;;;;;;;6252466;22;20020;-87
2022/04/09 12:08:18;;;;;;;4.97;2.22;;;;;;;;;;6251717;22;20046;-88
2022/04/09 12:10:55;;;;;;;7.20;1.33;;;;;;;;;;6253003;22;20016;-88
2022/04/09 12:13:35;;;;;;;4.82;1.05;;;;;;;;;;6250601;23;20031;-88
2022/04/09 12:16:09;;;;;;;6.10;1.23;;;;;;;;;;6240902;23;20440;-88
2022/04/09 12:18:38;;;;;;;6.13;1.40;;;;;;;;;;6250889;23;20378;-88
2022/04/09 12:21:20;;;;;;;8.82;1.48;;;;;;;;;;6252189;22;20062;-88
2022/04/09 12:24:17;;;;;;;9.52;1.58;;;;;;;;;;6252179;23;20047;-87
2022/04/09 12:26:55;;;;;;;7.75;1.52;;;;;;;;;;6128934;23;20029;-89
2022/04/09 12:29:24;;;;;;;9.77;1.95;;;;;;;;;;6129892;23;20065;-89
2022/04/09 12:32:12;;;;;;;5.43;1.00;;;;;;;;;;6106138;23;20041;-82
2022/04/09 12:34:52;;;;;;;6.43;1.38;;;;;;;;;;6107441;23;20033;-82
2022/04/09 12:37:20;;;;;;;12.05;1.52;;;;;;;;;;6132593;23;20473;-83
2022/04/09 12:39:47;;;;;;;8.50;1.52;;;;;;;;;;6097041;23;20030;-80
2022/04/09 12:42:16;;;;;;;10.77;1.75;;;;;;;;;;6130395;23;20022;-82
2022/04/09 12:44:44;;;;;;;8.10;1.48;;;;;;;;;;6130638;23;20045;-80
2022/04/09 12:47:20;;;;;;;13.40;1.73;;;;;;;;;;6130262;23;20483;-82
2022/04/09 12:49:47;;;;;;;7.68;1.55;;;;;;;;;;6095558;23;20022;-83
2022/04/09 12:52:16;;;;;;;12.27;1.85;;;;;;;;;;6130889;23;20029;-82
2022/04/09 12:54:43;;;;;;;8.45;1.73;;;;;;;;;;6106252;23;20541;-82
2022/04/09 12:57:13;;;;;;;8.35;1.35;;;;;;;;;;6131781;23;20032;-80
2022/04/09 12:59:41;;;;;;;7.10;1.48;;;;;;;;;;6134106;23;20041;-84
2022/04/09 13:02:10;;;;;;;5.70;1.58;;;;;;;;;;6143435;23;20120;-82
2022/04/09 13:04:37;;;;;;;11.23;1.85;;;;;;;;;;6257589;22;20024;-81
2022/04/09 13:07:05;;;;;;;12.27;1.80;;;;;;;;;;6257333;22;20296;-82
2022/04/09 13:09:33;;;;;;;5.97;1.45;;;;;;;;;;6256533;22;20020;-84
2022/04/09 13:12:02;;;;;;;5.47;1.20;;;;;;;;;;6256554;23;20023;-83
2022/04/09 13:14:29;;;;;;;10.77;1.50;;;;;;;;;;6256245;23;20483;-81
2022/04/09 13:17:02;;;;;;;5.90;1.42;;;;;;;;;;6258651;22;20042;-81
2022/04/09 13:19:33;;;;;;;10.45;1.20;;;;;;;;;;6257319;23;20028;-81
2022/04/09 13:22:02;;;;;;;10.25;1.38;;;;;;;;;;6197234;23;20030;-81
2022/04/09 13:24:30;;;;;;;7.82;1.70;;;;;;;;;;6254052;23;20031;-80
2022/04/09 13:26:57;;;;;;;9.38;1.58;;;;;;;;;;6253574;23;20024;-82
2022/04/09 13:29:25;;;;;;;9.18;1.92;;;;;;;;;;6255965;22;20020;-82
2022/04/09 13:31:53;;;;;;;11.23;1.63;;;;;;;;;;6257049;23;20021;-81
2022/04/09 13:34:21;;;;;;;10.32;2.00;;;;;;;;;;6256223;22;20020;-82
2022/04/09 13:36:49;;;;;;;13.82;2.33;;;;;;;;;;6245803;23;20499;-80
2022/04/09 13:39:17;;;;;;;14.73;2.25;;;;;;;;;;6252572;23;20020;-81
2022/04/09 13:42:02;;;;;;;12.13;2.05;;;;;;;;;;6254801;22;20094;-80
2022/04/09 13:44:29;;;;;;;15.18;1.98;;;;;;;;;;6255290;22;20440;-81
2022/04/09 13:46:57;;;;;;;11.57;3.15;;;;;;;;;;6256025;22;20024;-80
2022/04/09 13:49:25;;;;;;;15.57;2.05;;;;;;;;;;6254053;23;20026;-80
2022/04/09 13:51:57;;;;;;;11.48;2.15;;;;;;;;;;6254669;23;20020;-80
2022/04/09 13:54:26;;;;;;;14.38;1.70;;;;;;;;;;6254235;23;20020;-81
2022/04/09 13:56:53;;;;;;;12.88;2.13;;;;;;;;;;6255715;23;20022;-83
2022/04/09 13:59:21;;;;;;;9.57;1.88;;;;;;;;;;6256846;23;20031;-82
2022/04/09 14:01:50;;;;;;;12.98;2.22;;;;;;;;;;6256316;22;20446;-84
2022/04/09 14:04:19;;;;;;;9.70;1.73;;;;;;;;;;6255581;22;20087;-82
2022/04/09 14:06:48;;;;;;;12.88;2.10;;;;;;;;;;6257272;23;20046;-83
2022/04/09 14:09:16;;;;;;;14.23;2.30;;;;;;;;;;6256623;22;20020;-82
2022/04/09 14:11:43;;;;;;;10.63;1.80;;;;;;;;;;6256570;23;20040;-83
2022/04/09 14:14:13;;;;;;;13.02;1.95;;;;;;;;;;6255822;23;20038;-83
2022/04/09 14:16:48;;;;;;;11.02;1.67;;;;;;;;;;6256900;22;20074;-83
2022/04/09 14:19:15;;;;;;;10.43;2.28;;;;;;;;;;6231507;23;20022;-82
2022/04/09 14:21:44;;;;;;;13.07;2.40;;;;;;;;;;6221028;23;20024;-83
2022/04/09 14:24:12;;;;;;;15.18;1.88;;;;;;;;;;6256475;22;20027;-80
2022/04/09 14:26:39;;;;;;;10.15;1.80;;;;;;;;;;6255276;23;20023;-81
2022/04/09 14:29:08;;;;;;;8.98;1.92;;;;;;;;;;6257408;23;20375;-81
2022/04/09 14:31:36;;;;;;;11.77;1.95;;;;;;;;;;6257198;23;20074;-82
2022/04/09 14:34:05;;;;;;;11.82;1.63;;;;;;;;;;6222307;23;20023;-83
2022/04/09 14:36:33;;;;;;;15.27;2.10;;;;;;;;;;6257690;22;20020;-81
2022/04/09 14:39:06;;;;;;;9.90;1.52;;;;;;;;;;6246723;23;20024;-81
2022/04/09 14:41:35;;;;;;;3.83;0.95;;;;;;;;;;6244585;23;20394;-81
2022/04/09 14:44:04;;;;;;;5.60;1.33;;;;;;;;;;6255461;22;20012;-82
2022/04/09 14:46:31;;;;;;;5.40;1.27;;;;;;;;;;6256848;22;20019;-84
2022/04/09 14:48:59;;;;;;;7.30;1.30;;;;;;;;;;6255027;23;20078;-82
2022/04/09 14:51:27;;;;;;;6.53;1.60;;;;;;;;;;6255892;23;20051;-81
2022/04/09 14:53:55;;;;;;;4.10;1.10;;;;;;;;;;6256570;22;20452;-81
2022/04/09 14:56:23;;;;;;;10.90;1.73;;;;;;;;;;6254716;23;20031;-84
2022/04/09 14:58:54;;;;;;;8.40;1.85;;;;;;;;;;6255597;22;20027;-81
2022/04/09 15:01:21;;;;;;;7.72;1.52;;;;;;;;;;6254917;22;20028;-82